Time;durP1;ratioP1;P1;durP2;ratioP2;P2;SDS_P1;SDS_P2;PMS_P1;PMS_P2;Temp;Humidity;BMP_temperature;BMP_pressure;BME280_temperature;BME280_humidity;BME280_pressure;Samples;Min_cycle;Max_cycle;Signal;HPM_P1;HPM_P2
2022/12/06 00:00:43;;;;;;;21.27;15.30;;;7.60;99.90;;;;;;5072472;28;20177;-71
2022/12/06 00:03:09;;;;;;;25.53;16.00;;;7.60;99.90;;;;;;5072505;28;20262;-72
2022/12/06 00:05:35;;;;;;;21.43;15.27;;;7.60;99.90;;;;;;5073235;28;20255;-72
2022/12/06 00:08:00;;;;;;;18.60;14.50;;;7.50;99.90;;;;;;5076112;28;20180;-71
2022/12/06 00:10:26;;;;;;;19.87;14.57;;;7.50;99.90;;;;;;5081597;28;20216;-71
2022/12/06 00:12:52;;;;;;;19.57;13.57;;;7.50;99.90;;;;;;5096232;28;20686;-71
2022/12/06 00:15:17;;;;;;;16.13;13.10;;;7.40;99.90;;;;;;5078091;28;20175;-72
2022/12/06 00:17:43;;;;;;;16.50;12.90;;;7.50;99.90;;;;;;5078028;28;20197;-71
2022/12/06 00:20:09;;;;;;;16.80;12.53;;;7.50;99.90;;;;;;5078130;28;20191;-71
2022/12/06 00:22:35;;;;;;;16.73;12.67;;;7.50;99.90;;;;;;5096328;28;20164;-71
2022/12/06 00:25:00;;;;;;;17.17;12.80;;;7.50;99.90;;;;;;5095671;28;20214;-71
2022/12/06 00:27:26;;;;;;;19.53;12.90;;;7.50;99.90;;;;;;5095884;28;20182;-71
2022/12/06 00:29:52;;;;;;;16.63;11.97;;;7.50;99.90;;;;;;5096064;28;20627;-71
2022/12/06 00:32:17;;;;;;;17.20;12.47;;;7.50;99.90;;;;;;5095908;28;20160;-72
2022/12/06 00:34:43;;;;;;;16.77;12.10;;;7.50;99.90;;;;;;5095891;28;20691;-72
2022/12/06 00:37:09;;;;;;;17.63;11.77;;;7.50;99.90;;;;;;5077851;28;20504;-71
2022/12/06 00:39:34;;;;;;;15.83;12.03;;;7.50;99.90;;;;;;5095832;28;20171;-71
2022/12/06 00:42:00;;;;;;;16.43;12.10;;;7.50;99.90;;;;;;5095382;28;20227;-70
2022/12/06 00:44:26;;;;;;;13.77;11.23;;;7.50;99.90;;;;;;5095552;28;20242;-71
2022/12/06 00:46:51;;;;;;;15.00;12.40;;;7.50;99.90;;;;;;5095969;28;20629;-70
2022/12/06 00:49:17;;;;;;;15.40;12.10;;;7.50;99.90;;;;;;5077634;28;20651;-70
2022/12/06 00:51:42;;;;;;;15.53;12.13;;;7.50;99.90;;;;;;5095670;28;20255;-71
2022/12/06 00:54:12;;;;;;;14.67;11.30;;;7.60;99.90;;;;;;5077367;28;20228;-72
2022/12/06 00:56:38;;;;;;;13.30;11.27;;;7.50;99.90;;;;;;5095267;28;20183;-72
2022/12/06 00:59:03;;;;;;;13.23;10.60;;;7.40;99.90;;;;;;5077180;28;20203;-71
2022/12/06 01:01:32;;;;;;;14.17;11.10;;;7.40;99.90;;;;;;5077120;28;20184;-71
2022/12/06 01:04:00;;;;;;;13.30;10.93;;;7.50;99.90;;;;;;5095244;28;20717;-71
2022/12/06 01:06:31;;;;;;;16.00;10.63;;;7.40;99.90;;;;;;5095239;28;20201;-72
2022/12/06 01:09:00;;;;;;;12.43;10.90;;;7.40;99.90;;;;;;5095220;28;20172;-70
2022/12/06 01:11:26;;;;;;;12.43;10.90;;;7.40;99.90;;;;;;5094719;28;20266;-71
2022/12/06 01:13:53;;;;;;;12.07;10.30;;;7.30;99.90;;;;;;5095054;28;20172;-71
2022/12/06 01:16:21;;;;;;;12.50;10.40;;;7.30;99.90;;;;;;5094993;28;20201;-71
2022/12/06 01:18:52;;;;;;;12.93;9.90;;;7.20;99.90;;;;;;5094548;28;20218;-72
2022/12/06 01:21:18;;;;;;;12.97;9.60;;;7.30;99.90;;;;;;5095236;28;20183;-72
2022/12/06 01:23:44;;;;;;;11.40;9.73;;;7.30;99.90;;;;;;5094816;28;20671;-71
2022/12/06 01:26:29;;;;;;;11.83;9.90;;;7.30;99.90;;;;;;5076517;28;20176;-72
2022/12/06 01:28:56;;;;;;;12.63;10.07;;;7.30;99.90;;;;;;5094943;28;20167;-71
2022/12/06 01:31:21;;;;;;;11.27;9.40;;;7.20;99.90;;;;;;5094830;28;20250;-71
2022/12/06 01:33:47;;;;;;;11.63;9.47;;;7.10;99.90;;;;;;5094793;28;20565;-72
2022/12/06 01:36:18;;;;;;;11.80;9.63;;;7.20;99.90;;;;;;5094706;28;20175;-72
2022/12/06 01:38:47;;;;;;;11.70;9.73;;;7.10;99.90;;;;;;5094892;28;20167;-72
2022/12/06 01:41:13;;;;;;;10.73;8.70;;;6.90;99.90;;;;;;5076259;28;20199;-72
2022/12/06 01:43:41;;;;;;;11.30;8.53;;;6.90;99.90;;;;;;5094398;28;20289;-72
2022/12/06 01:46:20;;;;;;;9.60;8.60;;;6.90;99.90;;;;;;5094420;28;20168;-71
2022/12/06 01:49:00;;;;;;;11.33;8.50;;;6.90;99.90;;;;;;5094571;28;20170;-72
2022/12/06 01:51:25;;;;;;;12.47;8.70;;;7.00;99.90;;;;;;5073269;28;20187;-72
2022/12/06 01:53:53;;;;;;;10.40;8.37;;;6.90;99.90;;;;;;5094024;28;20286;-71
2022/12/06 01:56:19;;;;;;;10.63;8.07;;;6.90;99.90;;;;;;5094316;28;20221;-71
2022/12/06 01:58:47;;;;;;;9.80;8.03;;;6.90;99.90;;;;;;5094530;28;20194;-72
2022/12/06 02:01:13;;;;;;;10.60;9.10;;;7.00;99.90;;;;;;5094141;28;20176;-72
2022/12/06 02:03:39;;;;;;;10.93;8.30;;;7.10;99.90;;;;;;5093989;28;20782;-71
2022/12/06 02:06:07;;;;;;;10.70;8.87;;;7.20;99.90;;;;;;5093944;28;20195;-72
2022/12/06 02:08:34;;;;;;;10.23;9.03;;;7.20;99.90;;;;;;5093735;28;20168;-71
2022/12/06 02:11:02;;;;;;;9.70;8.70;;;7.20;99.90;;;;;;5093855;28;20219;-72
2022/12/06 02:13:30;;;;;;;9.77;8.27;;;7.30;99.90;;;;;;5093959;28;20217;-72
2022/12/06 02:16:15;;;;;;;10.03;8.23;;;7.40;99.90;;;;;;5094057;28;20168;-71
2022/12/06 02:18:52;;;;;;;9.70;8.60;;;7.40;99.90;;;;;;5093852;28;20284;-71
2022/12/06 02:21:42;;;;;;;11.20;8.37;;;7.40;99.90;;;;;;5093917;28;20169;-70
2022/12/06 02:24:56;;;;;;;12.30;8.77;;;7.50;99.90;;;;;;5093471;28;20219;-71
2022/12/06 02:27:44;;;;;;;11.83;8.67;;;7.40;99.90;;;;;;5093936;28;20164;-71
2022/12/06 02:30:33;;;;;;;9.97;8.43;;;7.40;99.90;;;;;;5063961;28;20202;-71
2022/12/06 02:33:39;;;;;;;11.17;9.27;;;7.50;99.90;;;;;;5093693;28;20183;-73
2022/12/06 02:36:11;;;;;;;10.30;9.20;;;7.50;99.90;;;;;;5070664;28;20262;-70
2022/12/06 02:38:57;;;;;;;9.87;8.83;;;7.40;99.90;;;;;;5093395;28;20186;-72
2022/12/06 02:41:33;;;;;;;9.87;8.57;;;7.40;99.90;;;;;;5031087;28;20185;-72
2022/12/06 02:44:03;;;;;;;10.23;8.67;;;7.40;99.90;;;;;;5031685;28;20745;-71
2022/12/06 02:46:34;;;;;;;9.30;8.23;;;7.50;99.90;;;;;;5031271;28;20557;-71
2022/12/06 02:49:03;;;;;;;9.80;8.43;;;7.60;99.90;;;;;;5031439;28;20261;-71
2022/12/06 02:51:31;;;;;;;10.00;8.43;;;7.70;99.90;;;;;;5030950;28;20251;-72
2022/12/06 02:53:59;;;;;;;11.50;9.07;;;7.60;99.90;;;;;;5030964;28;20181;-71
2022/12/06 02:56:27;;;;;;;11.40;8.50;;;7.60;99.90;;;;;;5031251;28;20170;-71
2022/12/06 02:58:53;;;;;;;10.57;8.83;;;7.60;99.90;;;;;;5031140;28;20177;-72
2022/12/06 03:01:25;;;;;;;9.43;8.43;;;7.60;99.90;;;;;;5031264;28;20182;-72
2022/12/06 03:03:51;;;;;;;11.03;8.53;;;7.60;99.90;;;;;;5014946;28;20677;-71
2022/12/06 03:06:44;;;;;;;10.23;8.07;;;7.60;99.90;;;;;;5014088;28;20182;-71
2022/12/06 03:09:31;;;;;;;10.13;8.17;;;7.60;99.90;;;;;;5031151;28;20170;-71
2022/12/06 03:12:16;;;;;;;10.20;8.13;;;7.60;99.90;;;;;;5014474;28;20235;-71
2022/12/06 03:15:08;;;;;;;9.50;8.47;;;7.60;99.90;;;;;;5030965;28;20220;-71
2022/12/06 03:17:40;;;;;;;12.03;8.50;;;7.50;99.90;;;;;;5035749;28;20185;-71
2022/12/06 03:20:16;;;;;;;10.90;8.70;;;7.50;99.90;;;;;;5073026;28;20177;-71
2022/12/06 03:22:48;;;;;;;11.10;8.47;;;7.60;99.90;;;;;;5073140;28;20207;-71
2022/12/06 03:25:14;;;;;;;12.07;9.17;;;7.50;99.90;;;;;;5071574;28;20184;-72
2022/12/06 03:27:42;;;;;;;10.70;8.73;;;7.50;99.90;;;;;;5072935;28;20697;-72
2022/12/06 03:30:10;;;;;;;11.20;9.53;;;7.40;99.90;;;;;;5072813;28;20168;-72
2022/12/06 03:32:40;;;;;;;12.47;8.50;;;7.50;99.90;;;;;;5071721;28;20632;-70
2022/12/06 03:35:10;;;;;;;11.73;9.17;;;7.50;99.90;;;;;;5072449;28;20157;-71
2022/12/06 03:37:39;;;;;;;10.43;9.07;;;7.40;99.90;;;;;;5072926;28;20229;-71
2022/12/06 03:40:15;;;;;;;11.20;9.13;;;7.40;99.90;;;;;;5072915;28;20234;-71
2022/12/06 03:42:41;;;;;;;14.60;9.17;;;7.40;99.90;;;;;;5076495;28;20674;-71
2022/12/06 03:45:10;;;;;;;14.57;9.00;;;7.40;99.90;;;;;;5074913;28;20219;-71
2022/12/06 03:47:40;;;;;;;12.23;9.87;;;7.40;99.90;;;;;;5076618;28;20179;-71
2022/12/06 03:50:21;;;;;;;12.03;9.40;;;7.40;99.90;;;;;;5076215;28;20176;-71
2022/12/06 03:52:50;;;;;;;13.80;9.60;;;7.40;99.90;;;;;;5076620;28;20164;-71
2022/12/06 03:55:15;;;;;;;13.77;10.07;;;7.40;99.90;;;;;;5076443;28;20160;-70
2022/12/06 03:57:41;;;;;;;13.07;10.27;;;7.30;99.90;;;;;;5075106;28;20646;-70
2022/12/06 04:00:08;;;;;;;13.23;9.90;;;7.30;99.90;;;;;;5076357;28;20209;-70
2022/12/06 04:02:33;;;;;;;16.67;11.13;;;7.30;99.90;;;;;;5076406;28;20255;-71
2022/12/06 04:04:59;;;;;;;15.60;11.53;;;7.30;99.90;;;;;;5075640;28;20295;-70
2022/12/06 04:07:25;;;;;;;17.03;11.20;;;7.40;99.90;;;;;;5075992;28;20195;-70
2022/12/06 04:10:11;;;;;;;17.10;10.93;;;7.30;99.90;;;;;;5076261;28;20176;-73
2022/12/06 04:15:22;;;;;;;15.40;10.77;;;7.30;99.90;;;;;;5096086;28;20225;-70
2022/12/06 04:23:02;;;;;;;14.07;10.67;;;7.40;99.90;;;;;;5096096;28;20179;-70
2022/12/06 04:23:19;;;;;;;14.90;10.37;;;7.30;99.90;;;;;;5095930;28;20221;-70
2022/12/06 04:25:45;;;;;;;15.00;10.53;;;7.40;99.90;;;;;;5077827;28;20171;-70
2022/12/06 04:39:07;;;;;;;13.63;9.63;;;7.30;99.90;;;;;;5096245;28;20309;-71
2022/12/06 04:44:17;;;;;;;14.40;9.90;;;7.40;99.90;;;;;;5095494;28;20582;-71
2022/12/06 04:46:42;;;;;;;14.83;9.90;;;7.40;99.90;;;;;;5094261;28;20172;-71
2022/12/06 04:49:08;;;;;;;16.50;10.30;;;7.40;99.90;;;;;;5095412;28;20176;-71
2022/12/06 04:51:33;;;;;;;13.83;10.20;;;7.50;99.90;;;;;;5094884;28;20175;-70
2022/12/06 04:53:59;;;;;;;14.83;9.87;;;7.50;99.90;;;;;;5094182;28;20172;-71
2022/12/06 04:56:25;;;;;;;13.57;9.57;;;7.50;99.90;;;;;;5095241;28;20172;-70
2022/12/06 04:58:50;;;;;;;12.77;9.53;;;7.50;99.90;;;;;;5095392;28;20195;-72
2022/12/06 05:01:16;;;;;;;12.00;9.87;;;7.50;99.90;;;;;;5095221;28;20578;-71
2022/12/06 05:03:42;;;;;;;14.40;10.37;;;7.50;99.90;;;;;;5094642;28;20203;-72
2022/12/06 05:06:07;;;;;;;15.40;10.13;;;7.50;99.90;;;;;;5095009;28;20574;-71
2022/12/06 05:08:33;;;;;;;17.13;10.80;;;7.50;99.90;;;;;;5094674;28;20701;-71
2022/12/06 05:10:58;;;;;;;16.00;10.43;;;7.40;99.90;;;;;;5094604;28;20743;-72
2022/12/06 05:13:24;;;;;;;15.63;10.87;;;7.40;99.90;;;;;;5094819;28;20172;-71
2022/12/06 05:15:52;;;;;;;18.57;11.17;;;7.40;99.90;;;;;;5094773;28;20601;-71
2022/12/06 05:18:18;;;;;;;17.30;11.53;;;7.50;99.90;;;;;;5094724;28;20229;-71
2022/12/06 05:20:43;;;;;;;17.07;11.00;;;7.50;99.90;;;;;;5094729;28;20623;-71
2022/12/06 05:23:09;;;;;;;13.40;10.73;;;7.50;99.90;;;;;;5094639;28;20168;-72
2022/12/06 05:25:35;;;;;;;13.87;10.67;;;7.50;99.90;;;;;;5094410;28;20543;-71
2022/12/06 05:28:00;;;;;;;18.47;11.23;;;7.60;99.90;;;;;;5094157;28;20172;-71
2022/12/06 05:30:26;;;;;;;12.20;10.13;;;7.40;99.90;;;;;;5094490;28;20229;-72
2022/12/06 05:32:51;;;;;;;17.23;9.87;;;7.30;99.90;;;;;;5094001;28;20730;-72
2022/12/06 05:35:17;;;;;;;17.00;10.93;;;7.40;99.90;;;;;;5094514;28;20273;-72
2022/12/06 05:37:43;;;;;;;20.30;10.97;;;7.40;99.90;;;;;;5094293;28;20256;-72
2022/12/06 05:40:09;;;;;;;17.67;10.87;;;7.50;99.90;;;;;;5094200;28;20632;-71
2022/12/06 05:42:36;;;;;;;18.00;10.13;;;7.40;99.90;;;;;;5094029;28;20203;-71
2022/12/06 05:45:02;;;;;;;14.37;10.77;;;7.40;99.90;;;;;;5075909;28;20212;-72
2022/12/06 05:47:28;;;;;;;15.83;10.67;;;7.50;99.90;;;;;;5093570;28;20168;-72
2022/12/06 05:49:53;;;;;;;15.50;9.77;;;7.40;99.90;;;;;;5093867;28;20569;-71
2022/12/06 05:52:19;;;;;;;15.77;9.87;;;7.40;99.90;;;;;;5092227;28;20202;-72
2022/12/06 05:54:44;;;;;;;15.23;10.43;;;7.20;99.90;;;;;;5092937;28;20167;-72
2022/12/06 05:57:10;;;;;;;12.53;9.47;;;7.20;99.90;;;;;;5093612;28;20195;-71
2022/12/06 05:59:36;;;;;;;16.03;10.07;;;7.10;99.90;;;;;;5093457;28;20172;-72
2022/12/06 06:02:01;;;;;;;14.87;9.57;;;7.10;99.90;;;;;;5092838;28;20183;-70
2022/12/06 06:04:27;;;;;;;20.43;10.20;;;7.00;99.90;;;;;;5093358;28;20605;-71
2022/12/06 06:06:52;;;;;;;12.47;9.27;;;6.70;99.90;;;;;;5093349;28;20209;-72
2022/12/06 06:09:18;;;;;;;14.43;9.43;;;6.60;99.90;;;;;;5074946;28;20266;-72
2022/12/06 06:11:43;;;;;;;16.77;9.53;;;6.50;99.90;;;;;;5092989;28;20670;-71
2022/12/06 06:14:09;;;;;;;14.73;9.47;;;6.40;99.90;;;;;;5092829;28;20547;-72
2022/12/06 06:16:35;;;;;;;14.67;10.13;;;6.30;99.90;;;;;;5092371;28;20249;-72
2022/12/06 06:19:00;;;;;;;15.63;10.33;;;6.40;99.90;;;;;;5092600;28;20683;-72
2022/12/06 06:21:26;;;;;;;16.17;10.80;;;6.50;99.90;;;;;;5092885;28;20172;-72
2022/12/06 06:23:54;;;;;;;15.97;9.97;;;6.50;99.90;;;;;;5092193;28;20214;-72
2022/12/06 06:26:20;;;;;;;14.97;10.00;;;6.70;99.90;;;;;;5092673;28;20160;-70
2022/12/06 06:28:46;;;;;;;17.30;10.03;;;6.60;99.90;;;;;;5092556;28;20251;-72
2022/12/06 06:31:12;;;;;;;15.07;9.80;;;6.60;99.90;;;;;;5092959;28;20285;-72
2022/12/06 06:33:38;;;;;;;19.57;10.50;;;6.60;99.90;;;;;;5074161;28;20183;-73
2022/12/06 06:36:04;;;;;;;18.47;10.00;;;6.50;99.90;;;;;;5092894;28;20168;-72
2022/12/06 06:38:30;;;;;;;17.53;10.43;;;6.60;99.90;;;;;;5092549;28;20181;-72
2022/12/06 06:40:55;;;;;;;17.27;10.70;;;6.30;99.90;;;;;;5092986;28;20179;-74
2022/12/06 06:43:21;;;;;;;18.63;11.07;;;6.10;99.90;;;;;;5091710;28;20208;-72
2022/12/06 06:45:55;;;;;;;15.17;10.17;;;6.10;99.90;;;;;;5092051;28;20197;-73
2022/12/06 06:48:22;;;;;;;17.97;11.17;;;6.10;99.90;;;;;;5091464;28;20198;-71
2022/12/06 06:50:47;;;;;;;16.60;9.93;;;6.10;99.90;;;;;;5074833;28;20481;-72
2022/12/06 06:53:13;;;;;;;18.37;10.30;;;6.10;99.90;;;;;;5092445;28;20258;-73
2022/12/06 06:55:39;;;;;;;20.27;10.50;;;6.10;99.90;;;;;;5073685;28;20615;-73
2022/12/06 06:58:05;;;;;;;16.93;10.73;;;6.00;99.90;;;;;;5092270;28;20171;-72
2022/12/06 07:00:32;;;;;;;16.53;10.60;;;6.00;99.90;;;;;;5091207;28;20310;-73
2022/12/06 07:02:57;;;;;;;21.33;10.53;;;6.00;99.90;;;;;;5091612;28;20203;-72
2022/12/06 07:05:23;;;;;;;20.60;10.57;;;5.90;99.90;;;;;;5092134;28;20226;-72
2022/12/06 07:07:49;;;;;;;16.03;10.17;;;5.80;99.90;;;;;;5091807;28;20631;-73
2022/12/06 07:10:15;;;;;;;20.30;10.50;;;5.70;99.90;;;;;;5091385;28;20253;-74
2022/12/06 07:12:40;;;;;;;20.37;10.87;;;5.70;99.90;;;;;;5091314;28;20292;-73
2022/12/06 07:15:06;;;;;;;24.93;11.53;;;5.60;99.90;;;;;;5092537;28;20273;-73
2022/12/06 07:17:32;;;;;;;16.60;10.57;;;5.60;99.90;;;;;;5077756;28;20258;-72
2022/12/06 07:19:57;;;;;;;17.67;10.43;;;5.60;99.90;;;;;;5095480;28;20627;-71
2022/12/06 07:22:23;;;;;;;17.40;10.50;;;5.60;99.90;;;;;;5077617;28;20179;-74
2022/12/06 07:24:49;;;;;;;19.80;11.47;;;5.70;99.90;;;;;;5095190;28;20290;-73
2022/12/06 07:27:14;;;;;;;22.17;10.93;;;5.80;99.90;;;;;;5095161;28;20171;-72
2022/12/06 07:29:40;;;;;;;20.93;11.90;;;5.90;99.90;;;;;;5095103;28;20493;-72
2022/12/06 07:32:05;;;;;;;18.17;11.60;;;6.10;99.90;;;;;;5096062;28;20225;-71
2022/12/06 07:34:32;;;;;;;22.83;11.67;;;6.20;99.90;;;;;;5094940;28;20168;-72
2022/12/06 07:36:58;;;;;;;19.27;11.27;;;6.30;99.90;;;;;;5095000;28;20176;-71
2022/12/06 07:39:23;;;;;;;20.60;11.73;;;6.40;99.90;;;;;;5095387;28;20526;-73
2022/12/06 07:47:17;;;;;;;17.90;10.87;;;6.40;99.90;;;;;;5094988;28;20191;-73
2022/12/06 07:49:43;;;;;;;18.30;10.60;;;6.30;99.90;;;;;;5094667;28;20619;-72
2022/12/06 07:52:08;;;;;;;16.77;9.50;;;6.10;99.90;;;;;;5095655;28;20717;-72
2022/12/06 07:54:34;;;;;;;17.93;9.70;;;6.00;99.90;;;;;;5093777;28;20171;-73
2022/12/06 07:57:00;;;;;;;19.90;10.27;;;5.80;99.90;;;;;;5088469;28;20180;-72
2022/12/06 07:59:26;;;;;;;19.97;11.47;;;5.90;99.90;;;;;;5089302;28;20171;-72
2022/12/06 08:01:52;;;;;;;20.07;10.43;;;5.90;99.90;;;;;;5089055;28;20184;-73
2022/12/06 08:04:18;;;;;;;18.00;10.33;;;5.90;99.90;;;;;;5093444;28;20241;-72
2022/12/06 08:06:44;;;;;;;19.13;11.17;;;6.00;99.90;;;;;;5093988;28;20611;-72
2022/12/06 08:09:10;;;;;;;19.53;10.23;;;6.10;99.90;;;;;;5066915;28;20191;-72
2022/12/06 08:11:36;;;;;;;19.47;11.03;;;6.20;99.90;;;;;;5072811;28;20217;-73
2022/12/06 08:14:03;;;;;;;15.87;10.30;;;6.20;99.90;;;;;;5083478;28;20172;-71
2022/12/06 08:16:29;;;;;;;20.07;11.57;;;6.20;99.90;;;;;;5089855;28;20725;-71
2022/12/06 08:18:55;;;;;;;22.30;11.67;;;6.00;99.90;;;;;;5092631;28;20187;-72
2022/12/06 08:21:21;;;;;;;24.27;11.97;;;6.00;99.90;;;;;;5090787;28;20176;-72
2022/12/06 08:23:47;;;;;;;23.33;12.70;;;6.00;99.90;;;;;;5109302;28;20596;-70
2022/12/06 08:26:14;;;;;;;20.70;12.40;;;6.10;99.90;;;;;;5079882;28;20202;-72
2022/12/06 08:28:42;;;;;;;20.03;12.90;;;6.20;99.90;;;;;;5093411;28;20216;-71
2022/12/06 08:31:16;;;;;;;19.90;12.60;;;6.20;99.90;;;;;;5085403;28;20183;-71
2022/12/06 08:33:42;;;;;;;20.00;12.23;;;6.30;99.90;;;;;;5091404;28;20262;-73
2022/12/06 08:36:10;;;;;;;18.13;12.50;;;6.50;99.90;;;;;;5088964;28;20287;-71
2022/12/06 08:38:37;;;;;;;18.23;12.13;;;6.60;99.90;;;;;;5078891;28;20177;-70
2022/12/06 08:41:03;;;;;;;21.77;12.37;;;6.70;99.90;;;;;;5081193;28;20671;-72
2022/12/06 08:43:30;;;;;;;19.73;11.60;;;6.80;99.90;;;;;;5073805;28;20492;-72
2022/12/06 08:45:55;;;;;;;18.80;12.43;;;6.80;99.90;;;;;;5079437;28;20265;-74
2022/12/06 08:48:21;;;;;;;21.50;12.90;;;6.90;99.90;;;;;;5092311;28;20267;-73
2022/12/06 08:50:47;;;;;;;22.37;12.93;;;6.90;99.90;;;;;;5080450;28;20650;-74
2022/12/06 08:53:13;;;;;;;22.30;11.87;;;7.10;99.90;;;;;;5092758;28;20183;-74
2022/12/06 08:55:40;;;;;;;20.98;14.68;;;7.20;99.90;;;;;;5088419;28;20977;-74
2022/12/06 08:58:06;;;;;;;18.37;12.43;;;7.40;99.90;;;;;;5092170;28;20187;-74
2022/12/06 09:00:31;;;;;;;19.70;11.73;;;7.40;99.90;;;;;;5090747;28;20180;-75
2022/12/06 09:02:57;;;;;;;21.43;11.70;;;7.40;99.90;;;;;;5083600;28;20602;-74
2022/12/06 09:05:22;;;;;;;18.53;12.03;;;7.40;99.90;;;;;;5079282;28;20256;-75
2022/12/06 09:07:48;;;;;;;16.67;11.40;;;7.50;99.90;;;;;;5109946;28;20364;-74
2022/12/06 09:10:13;;;;;;;16.93;11.63;;;7.40;99.90;;;;;;5089745;28;20731;-74
2022/12/06 09:12:39;;;;;;;18.30;12.17;;;7.40;99.90;;;;;;5090160;28;20270;-74
2022/12/06 09:15:05;;;;;;;20.17;11.77;;;7.50;99.90;;;;;;5072493;28;20656;-74
2022/12/06 09:17:32;;;;;;;18.53;11.57;;;7.50;99.90;;;;;;5072895;28;20231;-73
2022/12/06 09:19:57;;;;;;;14.47;11.20;;;7.70;99.90;;;;;;5092767;28;20708;-73
2022/12/06 09:22:23;;;;;;;17.77;11.27;;;7.80;99.90;;;;;;5110786;28;20198;-74
2022/12/06 09:24:48;;;;;;;17.70;11.63;;;8.00;99.90;;;;;;5090884;28;20250;-74
2022/12/06 09:27:15;;;;;;;16.03;10.67;;;8.00;99.90;;;;;;5086104;28;20628;-73
2022/12/06 09:29:42;;;;;;;19.87;10.93;;;8.10;99.90;;;;;;5083203;28;20268;-74
2022/12/06 09:32:07;;;;;;;15.47;10.10;;;8.20;99.90;;;;;;5088923;28;20187;-75
2022/12/06 09:34:33;;;;;;;16.83;9.03;;;8.20;99.90;;;;;;5072067;28;20692;-75
2022/12/06 09:37:07;;;;;;;17.57;8.93;;;8.40;99.90;;;;;;5091059;28;20194;-75
2022/12/06 09:39:43;;;;;;;13.27;9.43;;;8.60;99.90;;;;;;5083147;28;21035;-75
2022/12/06 09:42:15;;;;;;;16.73;9.17;;;9.30;99.90;;;;;;5078963;28;20226;-75
2022/12/06 09:45:14;;;;;;;14.93;9.03;;;9.40;99.90;;;;;;5082390;28;20833;-75
2022/12/06 09:47:57;;;;;;;14.70;8.93;;;9.60;99.90;;;;;;5085441;28;20183;-75
2022/12/06 09:50:34;;;;;;;9.70;6.80;;;9.80;99.90;;;;;;5076087;28;20200;-75
2022/12/06 09:53:13;;;;;;;9.60;6.47;;;9.70;99.90;;;;;;5091185;28;20172;-75
2022/12/06 09:55:46;;;;;;;8.97;6.47;;;9.80;99.90;;;;;;5074541;28;20207;-75
2022/12/06 09:58:24;;;;;;;12.63;6.53;;;10.10;99.90;;;;;;5074996;28;20179;-76
2022/12/06 10:01:05;;;;;;;10.37;6.30;;;10.10;99.90;;;;;;5082996;28;20188;-75
2022/12/06 10:03:55;;;;;;;13.13;6.33;;;10.30;99.90;;;;;;5071907;28;20668;-76
2022/12/06 10:06:25;;;;;;;11.97;7.43;;;10.00;99.90;;;;;;5089101;28;20176;-75
2022/12/06 10:09:06;;;;;;;11.77;7.40;;;10.20;99.90;;;;;;5092994;28;20163;-75
2022/12/06 10:11:57;;;;;;;15.03;7.50;;;10.30;99.90;;;;;;5068755;28;20229;-74
2022/12/06 10:14:48;;;;;;;10.60;6.73;;;10.50;99.90;;;;;;5032073;28;20196;-75
2022/12/06 10:17:35;;;;;;;8.73;6.43;;;10.90;99.90;;;;;;5030046;28;20181;-74
2022/12/06 10:20:28;;;;;;;8.07;6.10;;;11.50;99.90;;;;;;5051263;28;20539;-74
2022/12/06 10:23:26;;;;;;;10.87;5.30;;;12.20;99.90;;;;;;5051961;28;20161;-74
2022/12/06 10:26:03;;;;;;;9.73;6.83;;;13.50;99.90;;;;;;5063525;28;20200;-75
2022/12/06 10:28:57;;;;;;;12.20;6.27;;;14.30;99.90;;;;;;5047101;28;20235;-76
2022/12/06 10:31:29;;;;;;;7.80;5.40;;;14.90;99.90;;;;;;5052161;28;20161;-75
2022/12/06 10:33:55;;;;;;;6.50;5.18;;;15.40;99.90;;;;;;5037742;28;20645;-78
2022/12/06 10:36:33;;;;;;;6.93;5.32;;;15.90;99.90;;;;;;5043993;28;20174;-76
2022/12/06 10:39:21;;;;;;;6.93;5.78;;;16.20;98.30;;;;;;5046767;28;20203;-75
2022/12/06 10:42:07;;;;;;;6.65;5.40;;;16.30;97.30;;;;;;5055775;28;20243;-77
2022/12/06 10:44:47;;;;;;;7.47;5.20;;;16.20;97.60;;;;;;5049784;28;20254;-73
2022/12/06 10:47:44;;;;;;;9.38;6.32;;;16.30;98.30;;;;;;5062204;28;20672;-75
2022/12/06 10:50:25;;;;;;;7.47;5.60;;;16.50;96.90;;;;;;5037221;28;20204;-74
2022/12/06 10:52:59;;;;;;;9.13;5.40;;;16.80;96.50;;;;;;5050796;28;20180;-74
2022/12/06 10:55:38;;;;;;;6.95;5.38;;;17.10;95.10;;;;;;5051761;28;20200;-76
2022/12/06 10:58:14;;;;;;;7.32;4.90;;;17.10;94.90;;;;;;5042109;28;20192;-73
2022/12/06 11:00:59;;;;;;;6.22;4.18;;;17.00;94.80;;;;;;5044896;28;20189;-77
2022/12/06 11:03:32;;;;;;;5.75;3.70;;;17.20;93.80;;;;;;5050620;28;20193;-73
2022/12/06 11:06:14;;;;;;;5.07;3.75;;;17.50;92.80;;;;;;5050879;28;20181;-74
2022/12/06 11:08:42;;;;;;;4.28;3.88;;;17.50;92.40;;;;;;5047918;28;20657;-74
2022/12/06 11:11:34;;;;;;;10.20;4.38;;;17.10;92.90;;;;;;5053038;28;20220;-74
2022/12/06 11:14:25;;;;;;;4.28;3.92;;;17.20;92.90;;;;;;5071143;28;20229;-74
2022/12/06 11:16:58;;;;;;;6.28;5.13;;;17.40;91.30;;;;;;5086782;28;20259;-73
2022/12/06 11:19:37;;;;;;;4.97;4.47;;;17.10;91.70;;;;;;5091125;28;20635;-73
2022/12/06 11:22:37;;;;;;;5.53;4.60;;;16.60;92.80;;;;;;5092202;28;20168;-73
2022/12/06 11:25:21;;;;;;;9.00;5.20;;;16.10;93.10;;;;;;5090331;28;20264;-72
2022/12/06 11:28:10;;;;;;;7.63;6.10;;;15.60;94.90;;;;;;5091265;28;20164;-73
2022/12/06 11:30:36;;;;;;;9.30;7.32;;;15.40;96.80;;;;;;5071574;28;20242;-73
2022/12/06 11:33:03;;;;;;;6.78;6.07;;;15.00;98.50;;;;;;5078534;28;20254;-74
2022/12/06 11:35:28;;;;;;;5.93;5.35;;;15.10;98.30;;;;;;5069862;28;20225;-74
2022/12/06 11:37:59;;;;;;;7.93;6.45;;;15.30;97.40;;;;;;5091135;28;20211;-72
2022/12/06 11:40:31;;;;;;;9.50;6.03;;;15.00;96.90;;;;;;5091674;28;20207;-74
2022/12/06 11:42:59;;;;;;;6.82;5.65;;;14.90;97.60;;;;;;5089077;28;20212;-73
2022/12/06 11:45:29;;;;;;;11.87;8.27;;;14.40;98.80;;;;;;5086646;28;20209;-74
2022/12/06 11:47:58;;;;;;;9.80;7.63;;;14.00;99.90;;;;;;5071393;28;20233;-74
2022/12/06 11:50:27;;;;;;;8.63;6.10;;;13.70;99.90;;;;;;5071121;28;20176;-73
2022/12/06 11:52:56;;;;;;;6.67;5.70;;;13.40;99.90;;;;;;5071746;28;20172;-72
2022/12/06 11:55:29;;;;;;;8.27;6.80;;;13.00;99.90;;;;;;5069743;28;20204;-76
2022/12/06 11:58:05;;;;;;;8.37;7.40;;;12.60;99.90;;;;;;5078603;28;20186;-73
2022/12/06 12:00:30;;;;;;;9.30;7.67;;;12.30;99.90;;;;;;5086411;28;20186;-73
2022/12/06 12:02:57;;;;;;;8.63;7.03;;;12.40;99.90;;;;;;5094022;28;20315;-74
2022/12/06 12:05:29;;;;;;;8.90;6.60;;;12.70;99.90;;;;;;5093627;28;20215;-75
2022/12/06 12:08:01;;;;;;;7.93;7.00;;;13.20;99.90;;;;;;5100928;28;21508;-74
2022/12/06 12:10:27;;;;;;;9.10;8.10;;;13.00;99.90;;;;;;5095228;28;20219;-72
2022/12/06 12:15:46;;;;;;;10.30;6.47;;;12.30;99.90;;;;;;5111470;28;20194;-73
2022/12/06 12:18:21;;;;;;;12.93;6.57;;;12.00;99.90;;;;;;5113509;28;20194;-73
2022/12/06 12:20:48;;;;;;;7.33;6.57;;;12.40;99.90;;;;;;5115060;28;20262;-74
2022/12/06 12:23:20;;;;;;;9.10;7.97;;;12.20;99.90;;;;;;5100546;28;20320;-73
2022/12/06 12:26:13;;;;;;;8.47;6.13;;;12.30;99.90;;;;;;5093760;28;20187;-72
2022/12/06 12:28:41;;;;;;;7.23;5.60;;;12.40;99.90;;;;;;5057627;28;20192;-75
2022/12/06 12:31:21;;;;;;;6.97;5.60;;;12.70;99.90;;;;;;5074880;28;20210;-74
2022/12/06 12:33:48;;;;;;;9.23;5.20;;;12.80;99.90;;;;;;5083748;28;20180;-75
2022/12/06 12:36:20;;;;;;;5.87;5.37;;;12.90;99.90;;;;;;5084843;28;20265;-72
2022/12/06 12:38:59;;;;;;;6.33;5.73;;;12.70;99.90;;;;;;5088772;28;20176;-72
2022/12/06 12:41:28;;;;;;;7.30;5.00;;;12.60;99.90;;;;;;5089673;28;20241;-73
2022/12/06 12:44:11;;;;;;;7.53;4.10;;;12.40;99.90;;;;;;5083780;28;20216;-74
2022/12/06 12:46:42;;;;;;;5.97;4.50;;;12.00;99.90;;;;;;5081773;28;20200;-74
2022/12/06 12:49:27;;;;;;;6.87;4.27;;;11.60;99.90;;;;;;5080123;28;20171;-72
2022/12/06 12:51:53;;;;;;;9.60;4.17;;;11.40;99.90;;;;;;5092295;28;20183;-73
2022/12/06 12:54:23;;;;;;;5.70;4.00;;;11.40;99.90;;;;;;5089481;28;20204;-72
2022/12/06 12:56:49;;;;;;;7.73;4.63;;;11.20;99.90;;;;;;5090139;28;20183;-72
2022/12/06 12:59:17;;;;;;;11.27;4.70;;;11.20;99.90;;;;;;5092432;28;20179;-73
2022/12/06 13:02:04;;;;;;;8.73;4.30;;;11.20;99.90;;;;;;5076720;28;20184;-74
2022/12/06 13:04:55;;;;;;;13.37;4.33;;;10.80;99.90;;;;;;5085819;28;20746;-73
2022/12/06 13:07:27;;;;;;;8.07;5.00;;;10.20;99.90;;;;;;5075843;28;20175;-73
2022/12/06 13:09:56;;;;;;;8.67;5.23;;;9.90;99.90;;;;;;5092218;28;20172;-74
2022/12/06 13:13:04;;;;;;;8.30;5.50;;;9.80;99.90;;;;;;5075407;28;20194;-72
2022/12/06 13:15:50;;;;;;;11.73;5.80;;;9.70;99.90;;;;;;5034997;28;20206;-71
2022/12/06 13:18:37;;;;;;;8.70;6.03;;;9.80;99.90;;;;;;5072984;28;20172;-73
2022/12/06 13:21:34;;;;;;;8.37;5.67;;;9.70;99.90;;;;;;5077250;28;20179;-73
2022/12/06 13:24:25;;;;;;;12.23;5.50;;;9.70;99.90;;;;;;5073504;28;20227;-73
2022/12/06 13:26:59;;;;;;;12.53;5.67;;;9.80;99.90;;;;;;5091226;28;20225;-73
2022/12/06 13:29:33;;;;;;;9.00;5.67;;;10.00;99.90;;;;;;5093260;28;20175;-72